Time;durP1;ratioP1;P1;durP2;ratioP2;P2;SDS_P1;SDS_P2;PMS_P1;PMS_P2;Temp;Humidity;BMP_temperature;BMP_pressure;BME280_temperature;BME280_humidity;BME280_pressure;Samples;Min_cycle;Max_cycle;Signal;HPM_P1;HPM_P2
2023/04/12 00:02:15;;;;;;;16.23;9.77;;;10.10;67.80;;;;;;6245344;23;20334;-69
2023/04/12 00:04:41;;;;;;;15.63;10.17;;;10.10;68.00;;;;;;6245281;23;20024;-69
2023/04/12 00:07:08;;;;;;;17.97;10.93;;;10.10;67.50;;;;;;6245384;23;20023;-69
2023/04/12 00:09:35;;;;;;;19.40;12.13;;;10.10;68.30;;;;;;6245149;23;20000;-69
2023/04/12 00:12:01;;;;;;;19.37;12.60;;;10.10;67.10;;;;;;6245210;23;20016;-68
2023/04/12 00:14:28;;;;;;;19.50;12.70;;;10.00;66.90;;;;;;6245070;23;20390;-69
2023/04/12 00:16:54;;;;;;;19.50;12.70;;;10.00;66.80;;;;;;6245504;23;20053;-68
2023/04/12 00:19:20;;;;;;;17.47;12.13;;;9.90;68.30;;;;;;6247190;23;20008;-69
2023/04/12 00:21:45;;;;;;;17.73;11.57;;;9.90;68.50;;;;;;6247264;23;20001;-69
2023/04/12 00:24:12;;;;;;;21.17;12.80;;;9.90;68.30;;;;;;6246945;23;20012;-69
2023/04/12 00:26:38;;;;;;;24.27;12.80;;;9.80;68.00;;;;;;6246931;23;20031;-69
2023/04/12 00:29:03;;;;;;;19.23;12.37;;;9.80;68.50;;;;;;6246834;23;20000;-68
2023/04/12 00:31:29;;;;;;;19.73;11.20;;;9.80;69.00;;;;;;6247289;23;20004;-69
2023/04/12 00:33:55;;;;;;;20.93;11.60;;;9.70;68.50;;;;;;6247239;23;20035;-69
2023/04/12 00:36:21;;;;;;;18.40;11.40;;;9.70;68.40;;;;;;6247124;23;20005;-68
2023/04/12 00:38:46;;;;;;;18.23;12.30;;;9.70;68.60;;;;;;6246991;23;20007;-68
2023/04/12 00:41:16;;;;;;;22.33;11.97;;;9.60;68.40;;;;;;6247542;23;20074;-68
2023/04/12 00:43:42;;;;;;;18.30;12.47;;;9.60;68.80;;;;;;6246818;23;20496;-69
2023/04/12 00:46:11;;;;;;;19.67;11.70;;;9.50;68.90;;;;;;6246641;23;20000;-68
2023/04/12 00:48:37;;;;;;;17.53;11.43;;;9.50;68.60;;;;;;6247078;23;19997;-69
2023/04/12 00:51:06;;;;;;;20.03;10.73;;;9.50;68.90;;;;;;6270264;22;20019;-69
2023/04/12 00:53:32;;;;;;;23.37;11.90;;;9.50;69.40;;;;;;6277498;22;20003;-68
2023/04/12 00:55:58;;;;;;;18.57;11.93;;;9.40;69.20;;;;;;6277264;22;20007;-68
2023/04/12 00:58:24;;;;;;;21.87;12.83;;;9.40;68.90;;;;;;6275158;22;20095;-68
2023/04/12 01:00:51;;;;;;;17.77;12.33;;;9.40;69.00;;;;;;6274009;22;20003;-69
2023/04/12 01:03:21;;;;;;;20.83;11.93;;;9.40;69.50;;;;;;6274242;22;20083;-68
2023/04/12 01:06:28;;;;;;;18.80;12.27;;;9.40;69.60;;;;;;6277008;22;20004;-69
2023/04/12 01:09:01;;;;;;;19.47;11.43;;;9.30;70.20;;;;;;6276999;22;20022;-68
2023/04/12 01:11:55;;;;;;;17.53;11.53;;;9.30;70.40;;;;;;6276862;22;20003;-68
2023/04/12 01:15:15;;;;;;;15.20;10.83;;;9.20;70.50;;;;;;6277070;22;19999;-68
2023/04/12 01:18:04;;;;;;;18.07;11.23;;;9.20;70.20;;;;;;6124309;23;20005;-69
2023/04/12 01:20:36;;;;;;;15.40;10.83;;;9.20;70.40;;;;;;6270080;22;20007;-68
2023/04/12 01:23:30;;;;;;;18.63;11.52;;;9.20;70.20;;;;;;6277018;22;20003;-68
2023/04/12 01:26:07;;;;;;;17.50;10.37;;;9.20;70.40;;;;;;6276908;22;20122;-68
2023/04/12 01:28:34;;;;;;;14.13;9.87;;;9.20;70.70;;;;;;6276693;22;20031;-68
2023/04/12 01:31:05;;;;;;;13.87;9.50;;;9.20;70.60;;;;;;6277090;22;20003;-68
2023/04/12 01:33:34;;;;;;;13.97;10.17;;;9.30;70.80;;;;;;6277170;22;20026;-68
2023/04/12 01:36:04;;;;;;;15.70;10.30;;;9.30;71.00;;;;;;6277335;22;20008;-69
2023/04/12 01:38:32;;;;;;;14.13;9.40;;;9.30;70.10;;;;;;6277053;22;20010;-68
2023/04/12 01:40:59;;;;;;;11.90;8.57;;;9.30;69.20;;;;;;6277687;22;20365;-68
2023/04/12 01:43:25;;;;;;;14.40;8.30;;;9.30;69.10;;;;;;6276905;22;20007;-68
2023/04/12 01:45:51;;;;;;;10.13;7.50;;;9.30;69.80;;;;;;6277643;22;20010;-68
2023/04/12 01:48:17;;;;;;;9.83;7.90;;;9.30;70.90;;;;;;6277094;22;20003;-68
2023/04/12 01:51:13;;;;;;;12.77;8.13;;;9.20;71.00;;;;;;6277159;22;20019;-68
2023/04/12 01:53:50;;;;;;;15.53;9.60;;;9.20;69.80;;;;;;6277244;22;20061;-68
2023/04/12 01:56:19;;;;;;;16.13;9.23;;;9.20;69.40;;;;;;6276893;22;20027;-69
2023/04/12 01:58:47;;;;;;;15.00;9.77;;;9.20;69.80;;;;;;6276918;22;20008;-68
2023/04/12 02:01:16;;;;;;;12.83;9.30;;;9.10;70.20;;;;;;6276737;22;20000;-68
2023/04/12 02:03:42;;;;;;;14.03;9.17;;;9.10;70.60;;;;;;6276889;22;20008;-69
2023/04/12 02:06:09;;;;;;;14.50;9.27;;;9.10;70.70;;;;;;6276985;22;20027;-68
2023/04/12 02:08:36;;;;;;;13.17;9.27;;;9.10;71.10;;;;;;6277307;22;20337;-68
2023/04/12 02:11:08;;;;;;;11.77;9.07;;;9.10;71.00;;;;;;6276754;22;19999;-68
2023/04/12 02:13:34;;;;;;;12.77;9.10;;;9.10;71.70;;;;;;6276900;22;20024;-68
2023/04/12 02:16:01;;;;;;;12.67;9.03;;;9.10;71.00;;;;;;6276955;22;20015;-68
2023/04/12 02:18:27;;;;;;;11.47;8.17;;;9.10;71.60;;;;;;6249771;22;20036;-68
2023/04/12 02:20:53;;;;;;;11.37;8.27;;;9.10;71.10;;;;;;6276597;22;20014;-68
2023/04/12 02:23:19;;;;;;;12.47;7.90;;;9.10;71.10;;;;;;6276862;22;20426;-68
2023/04/12 02:25:45;;;;;;;9.77;7.70;;;9.10;71.40;;;;;;6276447;22;20004;-69
2023/04/12 02:28:12;;;;;;;10.67;7.93;;;9.20;71.90;;;;;;6276706;22;20011;-68
2023/04/12 02:30:40;;;;;;;13.77;8.20;;;9.10;71.80;;;;;;6276844;22;20012;-68
2023/04/12 02:33:07;;;;;;;11.53;8.10;;;9.20;71.90;;;;;;6276578;22;20015;-68
2023/04/12 02:35:33;;;;;;;11.77;7.53;;;9.20;72.10;;;;;;6276579;22;20006;-68
2023/04/12 02:37:59;;;;;;;14.33;8.20;;;9.20;72.30;;;;;;6276942;22;20086;-68
2023/04/12 02:40:25;;;;;;;10.47;8.10;;;9.20;72.60;;;;;;6275908;22;20000;-68
2023/04/12 02:42:50;;;;;;;12.23;8.30;;;9.20;73.00;;;;;;6276852;22;20085;-68
2023/04/12 02:45:16;;;;;;;12.10;7.97;;;9.20;72.50;;;;;;6276237;22;20101;-68
2023/04/12 02:47:42;;;;;;;12.17;8.67;;;9.20;72.10;;;;;;6276707;22;20003;-68
2023/04/12 02:50:08;;;;;;;11.43;8.00;;;9.30;72.10;;;;;;6276379;22;20077;-68
2023/04/12 02:52:33;;;;;;;11.60;8.40;;;9.30;71.80;;;;;;6276370;22;20070;-68
2023/04/12 02:54:59;;;;;;;14.47;8.83;;;9.30;71.40;;;;;;6276425;22;20007;-68
2023/04/12 02:57:25;;;;;;;10.10;7.97;;;9.30;71.10;;;;;;6276369;22;19996;-68
2023/04/12 02:59:54;;;;;;;13.10;8.43;;;9.30;70.70;;;;;;6276104;22;20019;-68
2023/04/12 03:02:21;;;;;;;11.03;8.00;;;9.20;70.90;;;;;;6276241;22;19995;-68
2023/04/12 03:04:49;;;;;;;13.60;8.47;;;9.10;71.40;;;;;;6276469;22;20014;-68
2023/04/12 03:07:19;;;;;;;11.97;8.17;;;9.10;71.90;;;;;;6276213;22;20000;-68
2023/04/12 03:09:49;;;;;;;16.37;8.60;;;9.10;71.80;;;;;;6276220;22;20000;-68
2023/04/12 03:12:15;;;;;;;14.47;8.50;;;9.10;72.40;;;;;;6275998;22;20422;-68
2023/04/12 03:14:41;;;;;;;17.20;8.17;;;9.00;72.90;;;;;;6276393;22;20030;-68
2023/04/12 03:17:08;;;;;;;17.60;8.70;;;9.10;72.30;;;;;;6276027;22;19996;-68
2023/04/12 03:19:35;;;;;;;19.20;8.73;;;9.00;72.10;;;;;;6276036;22;20018;-68
2023/04/12 03:22:02;;;;;;;17.07;8.77;;;9.10;72.40;;;;;;6275845;22;19996;-68
2023/04/12 03:24:32;;;;;;;16.00;7.53;;;9.10;72.50;;;;;;6276526;22;20337;-68
2023/04/12 03:26:58;;;;;;;13.53;7.87;;;9.00;72.20;;;;;;6276195;22;19996;-67
2023/04/12 03:29:24;;;;;;;10.90;8.10;;;9.10;72.70;;;;;;6276008;22;20079;-67
2023/04/12 03:31:50;;;;;;;14.17;7.83;;;9.10;72.30;;;;;;6276202;22;19996;-68
2023/04/12 03:34:16;;;;;;;13.50;7.33;;;9.10;72.50;;;;;;6275762;22;20012;-68
2023/04/12 03:36:41;;;;;;;11.20;7.70;;;9.10;72.70;;;;;;6275894;22;20421;-68
2023/04/12 03:39:07;;;;;;;13.73;7.17;;;9.10;73.10;;;;;;6275749;22;20000;-68
2023/04/12 03:41:33;;;;;;;14.60;7.90;;;9.10;72.40;;;;;;6275725;22;20429;-68
2023/04/12 03:43:59;;;;;;;17.30;7.83;;;9.10;73.20;;;;;;6275789;22;20082;-68
2023/04/12 03:46:25;;;;;;;34.27;8.30;;;9.10;72.40;;;;;;6276114;22;20065;-68
2023/04/12 03:48:51;;;;;;;11.77;7.80;;;9.20;73.10;;;;;;6275942;22;20000;-67
2023/04/12 03:51:17;;;;;;;12.33;7.93;;;9.20;73.20;;;;;;6275486;22;20441;-68
2023/04/12 03:53:42;;;;;;;10.70;7.27;;;9.20;72.60;;;;;;6248284;22;20329;-68
2023/04/12 03:56:08;;;;;;;12.63;7.67;;;9.30;73.10;;;;;;6275885;22;20035;-68
2023/04/12 03:58:35;;;;;;;13.73;7.60;;;9.30;73.20;;;;;;6275699;22;20008;-68
2023/04/12 04:01:08;;;;;;;11.50;7.33;;;9.30;72.80;;;;;;6275779;22;20008;-69
2023/04/12 04:03:33;;;;;;;;;;;9.30;72.50;;;;;;6275989;22;20082;-68
2023/04/12 04:06:02;;;;;;;14.40;7.53;;;9.40;72.60;;;;;;6275845;22;19927;-68
2023/04/12 04:08:29;;;;;;;9.70;7.10;;;9.40;72.80;;;;;;6275812;22;20062;-68
2023/04/12 04:10:58;;;;;;;10.50;6.70;;;9.40;73.30;;;;;;6275936;22;19996;-68
2023/04/12 04:13:24;;;;;;;12.77;7.53;;;9.40;72.60;;;;;;6275197;22;20083;-69
2023/04/12 04:15:59;;;;;;;12.13;7.77;;;9.40;72.70;;;;;;6275861;22;20027;-69
2023/04/12 04:18:25;;;;;;;11.87;7.80;;;9.40;73.10;;;;;;6275690;22;20007;-68
2023/04/12 04:20:51;;;;;;;10.00;7.17;;;9.40;72.80;;;;;;6248899;22;20008;-68
2023/04/12 04:23:16;;;;;;;10.43;8.10;;;9.40;73.70;;;;;;6275836;22;20012;-68
2023/04/12 04:25:43;;;;;;;15.87;6.97;;;9.50;74.30;;;;;;6275677;22;20012;-68
2023/04/12 04:28:09;;;;;;;14.87;6.50;;;9.50;72.70;;;;;;6275738;22;20006;-68
2023/04/12 04:30:37;;;;;;;17.47;7.50;;;9.50;72.50;;;;;;6276055;22;20074;-68
2023/04/12 04:33:06;;;;;;;22.17;7.80;;;9.60;72.70;;;;;;6275569;22;20004;-68
2023/04/12 04:35:32;;;;;;;19.23;7.83;;;9.50;73.70;;;;;;6275338;22;20031;-68
2023/04/12 04:37:59;;;;;;;14.57;7.33;;;9.60;73.80;;;;;;6275796;22;20003;-68
2023/04/12 04:40:25;;;;;;;61.00;10.33;;;9.60;73.70;;;;;;6275807;22;20004;-68
2023/04/12 04:42:53;;;;;;;41.77;8.17;;;9.60;73.70;;;;;;6275769;22;20050;-68
2023/04/12 04:45:25;;;;;;;23.60;7.33;;;9.60;74.30;;;;;;6275401;22;20007;-68
2023/04/12 04:47:54;;;;;;;17.63;7.57;;;9.60;75.00;;;;;;6275881;22;19995;-68
2023/04/12 04:50:21;;;;;;;18.73;7.73;;;9.60;74.80;;;;;;6275399;22;20102;-69
2023/04/12 04:52:48;;;;;;;17.73;8.40;;;9.60;74.50;;;;;;6275453;22;20003;-68
2023/04/12 04:55:14;;;;;;;21.97;7.80;;;9.70;75.50;;;;;;6275564;22;20372;-68
2023/04/12 04:57:40;;;;;;;20.07;6.87;;;9.60;76.20;;;;;;6275472;22;19999;-68
2023/04/12 05:00:15;;;;;;;21.20;7.30;;;9.60;76.60;;;;;;6275433;22;20004;-68
2023/04/12 05:02:42;;;;;;;18.07;7.13;;;9.70;76.50;;;;;;6275649;22;20548;-68
2023/04/12 05:05:12;;;;;;;19.67;7.27;;;9.70;77.00;;;;;;6276761;22;20011;-68
2023/04/12 05:07:38;;;;;;;14.30;6.57;;;9.70;76.70;;;;;;6277229;22;20046;-68
2023/04/12 05:10:05;;;;;;;14.67;7.50;;;9.70;76.10;;;;;;6277191;22;20038;-68
2023/04/12 05:12:30;;;;;;;15.30;7.50;;;9.70;76.10;;;;;;6276898;22;20011;-68
2023/04/12 05:14:56;;;;;;;18.33;7.33;;;9.70;76.60;;;;;;6277282;22;20003;-68
2023/04/12 05:17:22;;;;;;;18.47;7.57;;;9.80;76.60;;;;;;6277049;22;19995;-68
2023/04/12 05:19:48;;;;;;;14.33;7.27;;;9.80;76.20;;;;;;6276845;22;20000;-68
2023/04/12 05:22:19;;;;;;;15.77;8.17;;;9.80;76.50;;;;;;6276165;22;20059;-68
2023/04/12 05:24:45;;;;;;;16.97;8.67;;;9.80;76.40;;;;;;6277312;22;20012;-68
2023/04/12 05:27:10;;;;;;;12.73;7.63;;;9.80;76.40;;;;;;6277489;22;20027;-68
2023/04/12 05:29:36;;;;;;;17.93;8.37;;;9.80;76.70;;;;;;6277168;22;20074;-68
2023/04/12 05:32:02;;;;;;;14.13;8.17;;;9.90;77.00;;;;;;6277225;22;20010;-68
2023/04/12 05:34:29;;;;;;;16.40;8.20;;;9.90;77.10;;;;;;6275341;22;20038;-68
2023/04/12 05:36:55;;;;;;;24.43;9.23;;;9.90;77.80;;;;;;6249399;22;20500;-67
2023/04/12 05:39:21;;;;;;;19.93;9.13;;;9.90;78.10;;;;;;6276368;22;20058;-69
2023/04/12 05:41:47;;;;;;;13.47;7.10;;;10.00;77.50;;;;;;6276733;22;20418;-68
2023/04/12 05:44:13;;;;;;;14.90;7.23;;;10.00;77.40;;;;;;6276172;22;20337;-68
2023/04/12 05:46:39;;;;;;;18.70;7.70;;;10.00;77.50;;;;;;6276810;22;19995;-68
2023/04/12 05:49:05;;;;;;;16.67;7.47;;;10.00;77.20;;;;;;6276649;22;20011;-68
2023/04/12 05:51:31;;;;;;;15.10;7.70;;;10.00;77.40;;;;;;6276302;22;20015;-70
2023/04/12 05:53:57;;;;;;;11.63;7.33;;;10.00;77.10;;;;;;6275904;22;20008;-70
2023/04/12 05:56:23;;;;;;;20.93;7.90;;;10.00;77.00;;;;;;6273726;22;20006;-69
2023/04/12 05:58:50;;;;;;;14.73;7.07;;;10.10;77.90;;;;;;6276278;22;20004;-69
2023/04/12 06:01:18;;;;;;;13.63;7.50;;;10.10;77.90;;;;;;6276630;22;20000;-69
2023/04/12 06:03:44;;;;;;;21.30;7.57;;;10.10;77.70;;;;;;6276120;22;20000;-68
2023/04/12 06:06:10;;;;;;;14.70;7.80;;;10.10;77.90;;;;;;6275865;22;20031;-69
2023/04/12 06:08:37;;;;;;;14.27;8.03;;;10.20;78.00;;;;;;6275445;22;20022;-71
2023/04/12 06:11:07;;;;;;;12.67;6.93;;;10.20;78.10;;;;;;6276266;22;20011;-67
2023/04/12 06:13:33;;;;;;;16.73;7.63;;;10.30;78.30;;;;;;6276230;22;20053;-65
2023/04/12 06:15:58;;;;;;;33.00;8.37;;;10.30;79.00;;;;;;6276181;22;20003;-65
2023/04/12 06:18:24;;;;;;;15.43;8.23;;;10.30;79.30;;;;;;6276169;22;20441;-65
2023/04/12 06:20:50;;;;;;;20.70;7.57;;;10.40;79.70;;;;;;6276562;22;20007;-66
2023/04/12 06:23:18;;;;;;;16.73;7.43;;;10.40;80.40;;;;;;6276311;22;20377;-68
2023/04/12 06:25:44;;;;;;;22.23;7.73;;;10.40;80.50;;;;;;6276305;22;20008;-65
2023/04/12 06:28:10;;;;;;;20.27;7.70;;;10.50;81.00;;;;;;6171362;22;20009;-65
2023/04/12 06:30:36;;;;;;;23.83;7.63;;;10.50;80.70;;;;;;6185660;23;20081;-66
2023/04/12 06:33:02;;;;;;;26.17;7.67;;;10.50;80.60;;;;;;6185518;23;20085;-66
2023/04/12 06:35:28;;;;;;;31.90;7.75;;;10.60;80.70;;;;;;6185350;23;20032;-66
2023/04/12 06:37:53;;;;;;;19.42;7.40;;;10.60;80.20;;;;;;6185562;23;20001;-66
2023/04/12 06:40:19;;;;;;;28.17;8.80;;;10.60;80.40;;;;;;6185231;23;20005;-65
2023/04/12 06:42:45;;;;;;;23.17;7.90;;;10.70;80.20;;;;;;6186141;23;20088;-66
2023/04/12 06:45:11;;;;;;;15.63;7.40;;;10.80;80.40;;;;;;6185891;23;20040;-66
2023/04/12 06:47:37;;;;;;;27.92;7.80;;;10.80;80.00;;;;;;6185957;23;20008;-66
2023/04/12 06:50:05;;;;;;;19.30;7.37;;;10.80;79.90;;;;;;6185529;23;20021;-66
2023/04/12 06:52:31;;;;;;;26.60;7.57;;;10.80;79.90;;;;;;6185409;23;20416;-65
2023/04/12 06:54:57;;;;;;;27.73;7.88;;;10.90;79.70;;;;;;6185515;23;20008;-66
2023/04/12 06:57:23;;;;;;;24.83;9.48;;;10.90;79.90;;;;;;6185423;23;20007;-66
2023/04/12 06:59:49;;;;;;;39.42;12.52;;;11.00;79.30;;;;;;6185499;23;20028;-66
2023/04/12 07:02:15;;;;;;;30.25;11.57;;;11.00;79.50;;;;;;6185152;23;20047;-65
2023/04/12 07:04:40;;;;;;;32.75;10.48;;;11.00;79.20;;;;;;6185313;23;20017;-66
2023/04/12 07:07:06;;;;;;;19.30;10.00;;;11.00;79.30;;;;;;6185550;23;20001;-66
2023/04/12 07:09:32;;;;;;;24.15;10.88;;;11.00;79.80;;;;;;6185540;23;20032;-66
2023/04/12 07:12:03;;;;;;;21.75;10.25;;;11.00;80.80;;;;;;6185322;23;20055;-66
2023/04/12 07:14:29;;;;;;;18.85;9.73;;;11.10;80.30;;;;;;6185474;23;20008;-66
2023/04/12 07:16:55;;;;;;;21.73;10.73;;;11.10;80.90;;;;;;6185250;23;20009;-66
2023/04/12 07:19:21;;;;;;;14.02;8.85;;;11.10;80.70;;;;;;6185906;23;20068;-66
2023/04/12 07:21:46;;;;;;;20.55;9.20;;;11.10;80.90;;;;;;6185487;23;20009;-66
2023/04/12 07:24:12;;;;;;;19.45;9.43;;;11.10;81.40;;;;;;6185157;23;20005;-65
2023/04/12 07:26:38;;;;;;;17.65;9.18;;;11.10;80.90;;;;;;6185183;23;20072;-66
2023/04/12 07:29:03;;;;;;;16.90;8.93;;;11.20;80.90;;;;;;6185207;23;20029;-66
2023/04/12 07:31:29;;;;;;;18.92;7.72;;;11.20;80.50;;;;;;6185509;23;20151;-66
2023/04/12 07:33:55;;;;;;;21.20;7.68;;;11.20;80.10;;;;;;6158785;23;20021;-66
2023/04/12 07:36:21;;;;;;;21.85;8.38;;;11.20;79.80;;;;;;6185483;23;20416;-66
2023/04/12 07:38:47;;;;;;;19.15;8.27;;;11.20;80.20;;;;;;6185014;23;20005;-66
2023/04/12 07:41:13;;;;;;;15.77;8.02;;;11.30;80.00;;;;;;6185043;23;20065;-66
2023/04/12 07:43:39;;;;;;;19.77;6.90;;;11.30;79.90;;;;;;6185454;23;20005;-66
2023/04/12 07:46:07;;;;;;;13.70;6.18;;;11.40;80.10;;;;;;6184989;23;20339;-66
2023/04/12 07:48:33;;;;;;;13.68;6.10;;;11.40;79.30;;;;;;6185502;23;20005;-66
2023/04/12 07:50:59;;;;;;;10.82;5.57;;;11.50;79.00;;;;;;6185014;23;20025;-66
2023/04/12 07:53:27;;;;;;;14.32;5.38;;;11.50;78.00;;;;;;6185278;23;20005;-67
2023/04/12 07:55:54;;;;;;;18.50;5.47;;;11.70;77.50;;;;;;6184882;23;20008;-67
2023/04/12 07:58:24;;;;;;;18.52;5.30;;;11.70;77.00;;;;;;6185194;23;20068;-67
2023/04/12 08:00:50;;;;;;;12.02;4.80;;;11.80;76.80;;;;;;6184893;23;20068;-66
2023/04/12 08:03:17;;;;;;;7.60;4.72;;;11.80;76.50;;;;;;6184618;23;20105;-67
2023/04/12 08:05:44;;;;;;;7.22;3.58;;;11.90;76.10;;;;;;6184749;23;20379;-67
2023/04/12 08:08:10;;;;;;;4.30;2.88;;;11.90;76.40;;;;;;6184837;23;20048;-67
2023/04/12 08:10:37;;;;;;;5.82;2.88;;;12.00;73.70;;;;;;6185077;23;20458;-67
2023/04/12 08:13:04;;;;;;;7.05;3.47;;;12.00;72.50;;;;;;6184952;23;20001;-66
2023/04/12 08:15:29;;;;;;;4.47;2.97;;;12.00;71.70;;;;;;6184954;23;20446;-66
2023/04/12 08:17:55;;;;;;;5.50;3.50;;;12.10;70.70;;;;;;6185090;23;20013;-67
2023/04/12 08:20:21;;;;;;;6.00;3.08;;;12.20;70.60;;;;;;6184710;23;20005;-67
2023/04/12 08:22:48;;;;;;;9.98;3.92;;;12.20;69.80;;;;;;6184908;23;19997;-67
2023/04/12 08:25:14;;;;;;;6.53;3.85;;;12.20;69.50;;;;;;6184759;23;20009;-68
2023/04/12 08:27:44;;;;;;;10.07;3.88;;;12.20;69.60;;;;;;6185053;23;20080;-68
2023/04/12 08:30:10;;;;;;;8.30;4.07;;;12.20;69.70;;;;;;6185060;23;20067;-68
2023/04/12 08:32:36;;;;;;;11.63;4.22;;;12.20;69.80;;;;;;6185350;23;20356;-69
2023/04/12 08:35:05;;;;;;;7.97;3.90;;;12.30;69.70;;;;;;6183520;23;20015;-68
2023/04/12 08:37:31;;;;;;;9.77;3.78;;;12.30;70.00;;;;;;6183374;23;20056;-68
2023/04/12 08:40:05;;;;;;;9.38;3.33;;;12.40;69.80;;;;;;6185004;23;20024;-67
2023/04/12 08:42:32;;;;;;;8.38;4.10;;;12.40;69.20;;;;;;6184323;23;20431;-67
2023/04/12 08:44:58;;;;;;;14.32;4.93;;;12.40;69.10;;;;;;6186378;23;20017;-68
2023/04/12 08:47:24;;;;;;;8.13;3.30;;;12.40;70.00;;;;;;6186000;23;20051;-67
2023/04/12 08:49:50;;;;;;;9.15;3.00;;;12.50;70.40;;;;;;6184827;23;20057;-68
2023/04/12 08:52:16;;;;;;;9.02;4.43;;;12.50;69.50;;;;;;6185635;23;20387;-68
2023/04/12 08:54:42;;;;;;;9.32;3.45;;;12.50;67.30;;;;;;6185860;23;19997;-67
2023/04/12 08:57:08;;;;;;;4.88;3.30;;;12.60;67.20;;;;;;6185949;23;20056;-68
2023/04/12 08:59:37;;;;;;;8.20;2.97;;;12.60;67.00;;;;;;6186508;23;20423;-67
2023/04/12 09:02:03;;;;;;;4.78;2.83;;;12.70;65.50;;;;;;6160164;23;20309;-67
2023/04/12 09:04:29;;;;;;;9.15;3.05;;;12.70;64.60;;;;;;6186483;23;20020;-67
2023/04/12 09:06:55;;;;;;;6.75;2.97;;;12.70;65.00;;;;;;6186766;23;20012;-68
2023/04/12 09:09:43;;;;;;;5.05;2.95;;;12.70;65.20;;;;;;6186647;23;20005;-67
2023/04/12 09:12:10;;;;;;;3.63;2.75;;;12.80;64.30;;;;;;6186683;23;20001;-68
2023/04/12 09:14:37;;;;;;;5.82;3.38;;;12.80;63.10;;;;;;6186963;23;20323;-68
2023/04/12 09:17:03;;;;;;;5.07;2.97;;;12.80;63.70;;;;;;6187009;23;20083;-68
2023/04/12 09:19:34;;;;;;;4.72;3.33;;;12.90;63.70;;;;;;6186555;23;20021;-68
2023/04/12 09:22:01;;;;;;;7.40;3.60;;;12.90;64.00;;;;;;6186788;23;20056;-68
2023/04/12 09:24:27;;;;;;;8.35;3.13;;;12.90;64.10;;;;;;6186854;23;20021;-67
2023/04/12 09:27:04;;;;;;;5.22;3.45;;;13.00;64.00;;;;;;6186454;23;20415;-68
2023/04/12 09:29:30;;;;;;;7.38;3.45;;;13.00;63.10;;;;;;6186371;23;20020;-68
2023/04/12 09:31:59;;;;;;;7.10;3.00;;;13.00;63.10;;;;;;6186466;23;20331;-68
2023/04/12 09:34:25;;;;;;;5.15;3.15;;;13.10;63.00;;;;;;6186825;23;20001;-68
2023/04/12 09:36:50;;;;;;;6.47;3.20;;;13.10;62.50;;;;;;6186393;23;20001;-68
2023/04/12 09:39:16;;;;;;;6.20;3.20;;;13.10;61.70;;;;;;6160043;23;20013;-68
2023/04/12 09:41:42;;;;;;;5.72;3.22;;;13.20;61.90;;;;;;6186531;23;20072;-68
2023/04/12 09:44:08;;;;;;;5.07;2.63;;;13.20;62.00;;;;;;6186169;23;20009;-68
2023/04/12 09:46:33;;;;;;;15.50;3.17;;;13.30;61.80;;;;;;6186506;23;20032;-67
2023/04/12 09:49:01;;;;;;;9.98;3.33;;;13.30;61.60;;;;;;6186482;23;20016;-67
2023/04/12 09:51:30;;;;;;;20.27;3.33;;;13.40;61.60;;;;;;6185892;23;20490;-67
2023/04/12 09:54:05;;;;;;;23.38;3.85;;;13.40;61.80;;;;;;6186184;23;20427;-68
2023/04/12 09:56:34;;;;;;;6.15;2.65;;;13.40;61.50;;;;;;6186287;23;20001;-67
2023/04/12 09:59:06;;;;;;;6.32;2.95;;;13.50;61.30;;;;;;6186590;23;20001;-68
2023/04/12 10:01:38;;;;;;;6.75;2.80;;;13.60;60.70;;;;;;6186434;23;20083;-68
2023/04/12 10:04:08;;;;;;;5.40;2.97;;;13.70;60.30;;;;;;6186147;23;20428;-67
2023/04/12 10:06:35;;;;;;;5.82;3.20;;;13.70;60.30;;;;;;6186249;23;20013;-67
2023/04/12 10:09:05;;;;;;;9.85;3.40;;;13.80;60.20;;;;;;6185939;23;20024;-67
2023/04/12 10:11:32;;;;;;;7.85;3.00;;;13.80;59.90;;;;;;6185727;23;20004;-67
2023/04/12 10:14:01;;;;;;;4.47;2.60;;;13.90;59.50;;;;;;6185824;23;20081;-67
2023/04/12 10:16:27;;;;;;;7.43;3.00;;;13.90;58.50;;;;;;6186255;23;20011;-68
2023/04/12 10:18:54;;;;;;;6.55;3.72;;;13.90;58.90;;;;;;6186074;23;19997;-68
2023/04/12 10:21:20;;;;;;;3.75;2.40;;;14.00;59.40;;;;;;6186015;23;20001;-67
2023/04/12 10:23:46;;;;;;;4.40;2.47;;;14.00;58.40;;;;;;6185812;23;20001;-67
2023/04/12 10:26:14;;;;;;;4.00;2.53;;;14.10;57.80;;;;;;6186012;23;20009;-67
2023/04/12 10:28:45;;;;;;;3.50;2.10;;;14.10;56.90;;;;;;6185903;23;20360;-67
2023/04/12 10:31:29;;;;;;;5.55;2.60;;;14.20;56.70;;;;;;6185779;23;20067;-68
2023/04/12 10:33:55;;;;;;;6.22;2.30;;;14.20;57.00;;;;;;6185893;23;20085;-67
2023/04/12 10:36:50;;;;;;;4.72;2.20;;;14.30;56.90;;;;;;6185780;23;20021;-68
2023/04/12 10:39:16;;;;;;;5.07;2.33;;;14.40;57.00;;;;;;6185944;23;20072;-68
2023/04/12 10:42:19;;;;;;;3.10;2.22;;;14.60;56.40;;;;;;6185950;23;20041;-68
2023/04/12 10:44:46;;;;;;;3.92;2.45;;;14.70;56.80;;;;;;6185608;23;20096;-67
2023/04/12 10:47:11;;;;;;;3.85;2.30;;;14.90;57.00;;;;;;6185430;23;20055;-68
2023/04/12 10:49:38;;;;;;;4.80;2.13;;;14.90;55.50;;;;;;6185692;23;20009;-66
2023/04/12 10:52:04;;;;;;;4.28;2.15;;;15.00;55.50;;;;;;6185494;23;20439;-68
2023/04/12 10:54:34;;;;;;;3.63;2.20;;;15.10;54.40;;;;;;6159515;23;20013;-68
2023/04/12 10:57:00;;;;;;;7.45;2.75;;;15.10;53.40;;;;;;6185926;23;20021;-68
2023/04/12 10:59:49;;;;;;;2.75;2.00;;;15.10;53.20;;;;;;6185264;23;20029;-68
2023/04/12 11:02:15;;;;;;;3.50;2.38;;;15.20;52.80;;;;;;6184790;23;19997;-68
2023/04/12 11:05:09;;;;;;;5.28;2.47;;;15.20;52.70;;;;;;6185291;23;20091;-67
2023/04/12 11:07:40;;;;;;;5.35;2.17;;;15.30;53.50;;;;;;6185734;23;20016;-67
2023/04/12 11:10:17;;;;;;;5.10;2.00;;;15.30;53.10;;;;;;6185544;23;20080;-67
2023/04/12 11:12:59;;;;;;;5.13;2.17;;;15.40;52.20;;;;;;6185698;23;20351;-67
2023/04/12 11:15:26;;;;;;;5.20;2.47;;;15.40;52.40;;;;;;6185602;23;20043;-67
2023/04/12 11:17:56;;;;;;;6.75;3.08;;;15.40;52.50;;;;;;6183692;23;20064;-68
2023/04/12 11:20:26;;;;;;;6.28;2.30;;;15.50;53.80;;;;;;6185363;23;20431;-68
2023/04/12 11:22:53;;;;;;;4.32;2.25;;;15.50;53.50;;;;;;6185447;23;20059;-68
2023/04/12 11:25:19;;;;;;;6.18;2.40;;;15.50;52.40;;;;;;6185338;23;20013;-67
2023/04/12 11:27:50;;;;;;;3.67;2.30;;;15.60;51.10;;;;;;6185314;23;20001;-67
2023/04/12 11:30:16;;;;;;;3.97;2.50;;;15.60;50.90;;;;;;6185183;23;20015;-67
2023/04/12 11:32:44;;;;;;;6.70;2.63;;;15.60;51.10;;;;;;6185042;23;20056;-68
2023/04/12 11:35:10;;;;;;;7.82;2.38;;;15.50;52.00;;;;;;6185155;23;20028;-67
2023/04/12 11:37:37;;;;;;;4.55;2.65;;;15.60;51.90;;;;;;6185147;23;20002;-67
2023/04/12 11:40:04;;;;;;;4.68;2.47;;;15.60;52.30;;;;;;6184810;23;20112;-67
2023/04/12 11:42:31;;;;;;;4.72;1.98;;;15.60;53.00;;;;;;6185132;23;20319;-67
2023/04/12 11:44:58;;;;;;;8.50;2.63;;;15.50;53.30;;;;;;6184992;23;20013;-68
2023/04/12 11:47:24;;;;;;;5.13;2.47;;;15.60;53.00;;;;;;6185122;23;19997;-67
2023/04/12 11:49:53;;;;;;;6.10;2.45;;;15.60;51.50;;;;;;6185072;23;20052;-67
2023/04/12 11:52:20;;;;;;;5.18;2.42;;;15.60;51.10;;;;;;6185105;23;20088;-67
2023/04/12 11:54:50;;;;;;;5.57;3.00;;;15.60;51.20;;;;;;6184912;23;20001;-68
2023/04/12 11:57:17;;;;;;;5.95;2.28;;;15.70;52.00;;;;;;6185384;23;20104;-67
2023/04/12 11:59:46;;;;;;;5.15;2.30;;;15.70;52.60;;;;;;6184921;23;20424;-67
2023/04/12 12:02:12;;;;;;;6.07;2.33;;;15.80;51.30;;;;;;6185267;23;20064;-67
2023/04/12 12:04:44;;;;;;;6.10;3.15;;;15.90;51.10;;;;;;6184839;23;20028;-68
2023/04/12 12:07:17;;;;;;;3.85;2.58;;;15.90;51.00;;;;;;6184694;23;20005;-68
2023/04/12 12:09:45;;;;;;;4.72;2.42;;;15.90;50.10;;;;;;6185010;23;20001;-67
2023/04/12 12:12:11;;;;;;;4.45;2.42;;;15.90;49.60;;;;;;6184750;23;20391;-66
2023/04/12 12:14:37;;;;;;;3.67;2.80;;;16.00;49.50;;;;;;6186782;23;20428;-67
2023/04/12 12:17:14;;;;;;;6.90;2.50;;;16.00;50.20;;;;;;6187056;23;20375;-67
2023/04/12 12:19:42;;;;;;;11.70;2.55;;;16.10;49.60;;;;;;6187130;23;20430;-67
2023/04/12 12:22:19;;;;;;;4.00;2.30;;;16.20;49.40;;;;;;6186909;23;20032;-67
2023/04/12 12:24:49;;;;;;;3.63;2.33;;;16.20;48.80;;;;;;6187058;23;20012;-67
2023/04/12 12:27:23;;;;;;;3.17;2.20;;;16.30;49.00;;;;;;6187168;23;20006;-67
2023/04/12 12:29:52;;;;;;;5.22;2.30;;;16.30;48.70;;;;;;6186717;23;20001;-67
2023/04/12 12:32:19;;;;;;;4.72;2.28;;;16.30;49.20;;;;;;6184749;23;19997;-67
2023/04/12 12:34:54;;;;;;;6.22;2.65;;;16.30;49.20;;;;;;6186246;23;20055;-67
2023/04/12 12:37:23;;;;;;;3.72;2.40;;;16.40;48.70;;;;;;6186428;23;20024;-67
2023/04/12 12:40:12;;;;;;;3.67;2.58;;;16.40;48.70;;;;;;6186647;23;20032;-68
2023/04/12 12:42:53;;;;;;;4.68;2.67;;;16.40;47.50;;;;;;6186358;23;20098;-67
2023/04/12 12:45:20;;;;;;;6.85;2.65;;;16.40;48.30;;;;;;6186842;23;20021;-67
2023/04/12 12:48:01;;;;;;;5.47;2.13;;;16.50;48.70;;;;;;6186615;23;20008;-67
2023/04/12 12:50:28;;;;;;;3.38;2.40;;;16.60;48.40;;;;;;6185863;23;20017;-67